Time,TemperatureF,DewpointF,PressureIn,WindDirection,WindDirectionDegrees,WindSpeedMPH,WindSpeedGustMPH,Humidity,HourlyPrecipIn,Conditions,Clouds,dailyrainin,SoftwareType,DateUTC
2013-03-17 00:02:00,46.0,18.0,29.49,South,174,14.0,25.0,32,0.00,,,0.00,,2013-03-17 06:02:00,
2013-03-17 00:12:00,46.0,18.0,29.49,South,174,14.0,25.0,32,0.00,,,0.00,,2013-03-17 06:12:00,
2013-03-17 00:22:00,46.0,18.0,29.49,South,179,9.0,33.0,32,0.00,,,0.00,,2013-03-17 06:22:00,
2013-03-17 00:32:00,46.0,18.0,29.47,NE,48,10.0,31.0,32,0.00,,,0.00,,2013-03-17 06:32:00,
2013-03-17 00:42:00,46.0,18.0,29.47,NE,48,10.0,31.0,32,0.00,,,0.00,,2013-03-17 06:42:00,
2013-03-17 00:52:00,46.0,16.0,29.44,SE,129,16.0,43.0,29,0.00,,,0.00,,2013-03-17 06:52:00,
2013-03-17 01:02:00,46.0,16.0,29.44,East,98,11.0,53.0,29,0.00,,,0.00,,2013-03-17 07:02:00,
2013-03-17 01:11:00,46.0,16.0,29.44,East,98,11.0,53.0,29,0.00,,,0.00,,2013-03-17 07:11:00,
2013-03-17 01:22:00,46.0,16.0,29.42,SE,126,20.0,33.0,29,0.00,,,0.00,,2013-03-17 07:22:00,
2013-03-17 01:32:00,46.0,16.0,29.42,SE,126,20.0,33.0,29,0.00,,,0.00,,2013-03-17 07:32:00,
2013-03-17 01:42:00,46.0,16.0,29.42,SE,126,20.0,33.0,29,0.00,,,0.00,,2013-03-17 07:42:00,
2013-03-17 01:52:00,46.0,18.0,29.39,WSW,246,23.0,44.0,32,0.00,,,0.00,,2013-03-17 07:52:00,
2013-03-17 02:02:00,45.0,19.0,29.38,SW,219,23.0,50.0,35,0.00,,,0.00,,2013-03-17 08:02:00,
2013-03-17 02:12:00,45.0,20.0,29.39,SE,128,7.0,24.0,37,0.00,,,0.00,,2013-03-17 08:12:00,
2013-03-17 02:22:00,45.0,20.0,29.39,SE,128,7.0,24.0,37,0.00,,,0.00,,2013-03-17 08:22:00,
2013-03-17 02:32:00,44.0,21.0,29.39,WNW,300,15.0,42.0,40,0.00,,,0.00,,2013-03-17 08:32:00,
2013-03-17 02:42:00,44.0,21.0,29.39,WNW,300,15.0,42.0,40,0.00,,,0.00,,2013-03-17 08:42:00,
2013-03-17 02:52:00,43.0,23.0,29.39,WSW,255,15.0,38.0,45,0.00,,,0.00,,2013-03-17 08:52:00,
2013-03-17 03:02:00,42.0,24.0,29.39,SE,143,16.0,32.0,48,0.00,,,0.00,,2013-03-17 09:02:00,
2013-03-17 03:11:00,42.0,24.0,29.39,SE,143,16.0,32.0,48,0.00,,,0.00,,2013-03-17 09:11:00,
2013-03-17 03:22:00,41.0,24.0,29.39,SE,146,19.0,41.0,51,0.00,,,0.00,,2013-03-17 09:22:00,
2013-03-17 03:32:00,41.0,24.0,29.37,South,173,20.0,43.0,51,0.00,,,0.00,,2013-03-17 09:32:00,
2013-03-17 03:42:00,41.0,24.0,29.37,South,173,20.0,43.0,51,0.00,,,0.00,,2013-03-17 09:42:00,
2013-03-17 03:52:00,42.0,24.0,29.36,SSE,154,15.0,38.0,49,0.00,,,0.00,,2013-03-17 09:52:00,
2013-03-17 04:02:00,43.0,24.0,29.33,East,81,7.0,28.0,46,0.00,,,0.00,,2013-03-17 10:02:00,
2013-03-17 04:12:00,43.0,24.0,29.33,East,81,7.0,28.0,46,0.00,,,0.00,,2013-03-17 10:12:00,
2013-03-17 04:23:00,43.0,24.0,29.30,North,349,8.0,20.0,46,0.00,,,0.00,,2013-03-17 10:23:00,
2013-03-17 04:33:00,43.0,24.0,29.30,North,349,8.0,20.0,46,0.00,,,0.00,,2013-03-17 10:33:00,
2013-03-17 04:42:00,43.0,24.0,29.30,North,349,8.0,20.0,46,0.00,,,0.00,,2013-03-17 10:42:00,
2013-03-17 04:52:00,44.0,22.0,29.29,South,175,14.0,40.0,41,0.00,,,0.00,,2013-03-17 10:52:00,
2013-03-17 05:02:00,43.0,24.0,29.28,WSW,252,20.0,36.0,47,0.00,,,0.00,,2013-03-17 11:02:00,
2013-03-17 05:12:00,43.0,24.0,29.28,WSW,252,20.0,36.0,47,0.00,,,0.00,,2013-03-17 11:12:00,
2013-03-17 05:22:00,42.0,25.0,29.29,WSW,257,17.0,36.0,50,0.00,,,0.00,,2013-03-17 11:22:00,
2013-03-17 05:32:00,43.0,24.0,29.28,West,259,16.0,30.0,46,0.00,,,0.00,,2013-03-17 11:32:00,
2013-03-17 05:42:00,43.0,24.0,29.28,West,259,16.0,30.0,46,0.00,,,0.00,,2013-03-17 11:42:00,
2013-03-17 05:52:00,43.0,24.0,29.28,WSW,250,13.0,25.0,46,0.00,,,0.00,,2013-03-17 11:52:00,
2013-03-17 06:01:00,42.0,25.0,29.29,SSW,211,10.0,22.0,51,0.00,,,0.00,,2013-03-17 12:01:00,
2013-03-17 06:12:00,42.0,25.0,29.29,SSW,211,10.0,22.0,51,0.00,,,0.00,,2013-03-17 12:12:00,
2013-03-17 06:21:00,40.0,26.0,29.28,SSW,197,9.0,29.0,58,0.00,,,0.00,,2013-03-17 12:21:00,
2013-03-17 06:32:00,39.0,27.0,29.31,South,175,17.0,42.0,63,0.00,,,0.00,,2013-03-17 12:32:00,
2013-03-17 06:42:00,39.0,27.0,29.31,South,175,17.0,42.0,63,0.00,,,0.00,,2013-03-17 12:42:00,
2013-03-17 06:52:00,36.0,26.0,29.32,WSW,239,9.0,28.0,68,0.00,,,0.00,,2013-03-17 12:52:00,
2013-03-17 07:01:00,35.0,28.0,29.32,South,185,13.0,15.0,75,0.00,,,0.00,,2013-03-17 13:01:00,
2013-03-17 07:11:00,35.0,28.0,29.32,South,185,13.0,15.0,75,0.00,,,0.00,,2013-03-17 13:11:00,
2013-03-17 07:22:00,37.0,26.0,29.32,SW,227,12.0,25.0,65,0.00,,,0.00,,2013-03-17 13:22:00,
2013-03-17 07:32:00,37.0,26.0,29.32,SW,227,12.0,25.0,65,0.00,,,0.00,,2013-03-17 13:32:00,
2013-03-17 07:42:00,37.0,26.0,29.32,SW,227,12.0,25.0,65,0.00,,,0.00,,2013-03-17 13:42:00,
2013-03-17 07:52:00,34.0,27.0,29.31,West,281,18.0,25.0,76,0.01,,,0.01,,2013-03-17 13:52:00,
2013-03-17 08:02:00,34.0,27.0,29.31,West,281,18.0,25.0,76,0.01,,,0.01,,2013-03-17 14:02:00,
2013-03-17 08:12:00,34.0,27.0,29.31,West,281,18.0,25.0,76,0.01,,,0.01,,2013-03-17 14:12:00,
2013-03-17 08:22:00,32.0,28.0,29.32,North,5,10.0,21.0,84,0.01,,,0.01,,2013-03-17 14:22:00,
2013-03-17 08:32:00,33.0,28.0,29.31,SSW,210,9.0,17.0,81,0.01,,,0.01,,2013-03-17 14:32:00,
2013-03-17 08:42:00,33.0,28.0,29.31,SSW,210,9.0,17.0,81,0.01,,,0.01,,2013-03-17 14:42:00,
2013-03-17 08:52:00,32.0,28.0,29.31,WNW,296,1.0,6.0,86,0.00,,,0.01,,2013-03-17 14:52:00,
2013-03-17 09:02:00,31.0,28.0,29.32,WSW,249,1.0,3.0,89,0.00,,,0.01,,2013-03-17 15:02:00,
2013-03-17 09:11:00,31.0,28.0,29.32,WSW,249,1.0,3.0,89,0.00,,,0.01,,2013-03-17 15:11:00,
2013-03-17 09:22:00,32.0,29.0,29.33,ENE,70,9.0,16.0,87,0.00,,,0.01,,2013-03-17 15:22:00,
2013-03-17 09:32:00,32.0,27.0,29.34,SE,131,5.0,11.0,82,0.01,,,0.02,,2013-03-17 15:32:00,
2013-03-17 09:42:00,32.0,27.0,29.34,SE,131,5.0,11.0,82,0.01,,,0.02,,2013-03-17 15:42:00,
2013-03-17 09:52:00,32.0,29.0,29.34,NNE,23,6.0,12.0,87,0.02,,,0.03,,2013-03-17 15:52:00,
2013-03-17 10:03:00,32.0,29.0,29.35,NNE,14,2.0,8.0,87,0.02,,,0.03,,2013-03-17 16:03:00,
2013-03-17 10:12:00,32.0,29.0,29.35,NNE,14,2.0,8.0,87,0.02,,,0.03,,2013-03-17 16:12:00,
2013-03-17 10:22:00,32.0,28.0,29.36,NNE,28,1.0,5.0,86,0.02,,,0.03,,2013-03-17 16:22:00,
2013-03-17 10:33:00,32.0,28.0,29.36,SW,221,1.0,3.0,84,0.01,,,0.03,,2013-03-17 16:33:00,
2013-03-17 10:42:00,32.0,28.0,29.36,SW,221,1.0,3.0,84,0.01,,,0.03,,2013-03-17 16:42:00,
2013-03-17 10:52:00,32.0,29.0,29.36,ENE,63,8.0,14.0,87,0.00,,,0.03,,2013-03-17 16:52:00,
2013-03-17 11:02:00,30.0,27.0,29.36,NNE,33,8.0,12.0,90,0.00,,,0.03,,2013-03-17 17:02:00,
2013-03-17 11:12:00,30.0,27.0,29.36,NNE,33,8.0,12.0,90,0.00,,,0.03,,2013-03-17 17:12:00,
2013-03-17 11:22:00,30.0,28.0,29.36,NE,42,5.0,9.0,92,0.00,,,0.03,,2013-03-17 17:22:00,
2013-03-17 11:32:00,30.0,27.0,29.37,North,9,0.0,5.0,90,0.00,,,0.03,,2013-03-17 17:32:00,
2013-03-17 11:42:00,30.0,27.0,29.37,North,9,0.0,5.0,90,0.00,,,0.03,,2013-03-17 17:42:00,
2013-03-17 11:52:00,31.0,28.0,29.37,NE,53,1.0,3.0,89,0.00,,,0.03,,2013-03-17 17:52:00,
2013-03-17 12:01:00,32.0,29.0,29.36,West,264,2.0,5.0,87,0.00,,,0.03,,2013-03-17 18:01:00,
2013-03-17 12:12:00,32.0,29.0,29.36,West,264,2.0,5.0,87,0.00,,,0.03,,2013-03-17 18:12:00,
2013-03-17 12:22:00,32.0,28.0,29.37,South,189,3.0,7.0,86,0.00,,,0.03,,2013-03-17 18:22:00,
2013-03-17 12:32:00,33.0,29.0,29.39,South,188,10.0,15.0,85,0.00,,,0.03,,2013-03-17 18:32:00,
2013-03-17 12:42:00,33.0,29.0,29.39,South,188,10.0,15.0,85,0.00,,,0.03,,2013-03-17 18:42:00,
2013-03-17 12:52:00,35.0,21.0,29.39,West,265,17.0,27.0,57,0.00,,,0.03,,2013-03-17 18:52:00,
2013-03-17 13:02:00,36.0,16.0,29.40,SW,227,14.0,29.0,44,0.00,,,0.03,,2013-03-17 19:02:00,
2013-03-17 13:12:00,36.0,16.0,29.40,SW,227,14.0,29.0,44,0.00,,,0.03,,2013-03-17 19:12:00,
2013-03-17 13:22:00,35.0,12.0,29.39,NNW,340,12.0,42.0,38,0.01,,,0.04,,2013-03-17 19:22:00,
2013-03-17 13:32:00,34.0,14.0,29.41,NE,51,8.0,26.0,43,0.01,,,0.04,,2013-03-17 19:32:00,
2013-03-17 13:41:00,34.0,14.0,29.41,NE,51,8.0,26.0,43,0.01,,,0.04,,2013-03-17 19:41:00,
2013-03-17 13:52:00,35.0,14.0,29.44,East,84,11.0,25.0,41,0.01,,,0.04,,2013-03-17 19:52:00,
2013-03-17 14:02:00,35.0,9.0,29.45,ENE,78,5.0,20.0,33,0.01,,,0.04,,2013-03-17 20:02:00,
2013-03-17 14:11:00,35.0,9.0,29.45,ENE,78,5.0,20.0,33,0.01,,,0.04,,2013-03-17 20:11:00,
2013-03-17 14:22:00,34.0,11.0,29.47,WNW,301,10.0,24.0,37,0.00,,,0.04,,2013-03-17 20:22:00,
2013-03-17 14:32:00,35.0,13.0,29.47,WSW,246,16.0,23.0,40,0.00,,,0.04,,2013-03-17 20:32:00,
2013-03-17 14:42:00,35.0,13.0,29.47,WSW,246,16.0,23.0,40,0.00,,,0.04,,2013-03-17 20:42:00,
2013-03-17 14:52:00,34.0,8.0,29.48,SSE,159,10.0,40.0,33,0.00,,,0.04,,2013-03-17 20:52:00,
2013-03-17 15:02:00,34.0,5.0,29.50,SSW,208,8.0,36.0,29,0.00,,,0.04,,2013-03-17 21:02:00,
2013-03-17 15:11:00,34.0,5.0,29.50,SSW,208,8.0,36.0,29,0.00,,,0.04,,2013-03-17 21:11:00,
2013-03-17 15:22:00,35.0,8.0,29.50,SSW,206,9.0,14.0,32,0.00,,,0.04,,2013-03-17 21:22:00,
2013-03-17 15:32:00,36.0,8.0,29.50,NW,309,9.0,18.0,30,0.00,,,0.04,,2013-03-17 21:32:00,
2013-03-17 15:42:00,36.0,8.0,29.50,NW,309,9.0,18.0,30,0.00,,,0.04,,2013-03-17 21:42:00,
2013-03-17 15:52:00,36.0,6.0,29.51,WNW,285,10.0,18.0,28,0.00,,,0.04,,2013-03-17 21:52:00,
2013-03-17 16:02:00,31.0,11.0,29.54,West,267,25.0,48.0,42,0.00,,,0.04,,2013-03-17 22:02:00,
2013-03-17 16:12:00,33.0,9.0,29.54,WSW,247,10.0,16.0,36,0.00,,,0.04,,2013-03-17 22:12:00,
2013-03-17 16:23:00,33.0,9.0,29.54,WSW,247,10.0,16.0,36,0.00,,,0.04,,2013-03-17 22:23:00,
2013-03-17 16:33:00,34.0,5.0,29.54,WNW,296,8.0,16.0,29,0.00,,,0.04,,2013-03-17 22:33:00,
2013-03-17 16:42:00,34.0,5.0,29.54,WNW,296,8.0,16.0,29,0.00,,,0.04,,2013-03-17 22:42:00,
2013-03-17 16:52:00,35.0,7.0,29.56,East,89,2.0,17.0,31,0.00,,,0.04,,2013-03-17 22:52:00,
2013-03-17 17:02:00,35.0,6.0,29.56,West,262,8.0,20.0,29,0.00,,,0.04,,2013-03-17 23:02:00,
2013-03-17 17:12:00,35.0,6.0,29.56,West,262,8.0,20.0,29,0.00,,,0.04,,2013-03-17 23:12:00,
2013-03-17 17:22:00,35.0,6.0,29.57,WNW,299,11.0,18.0,29,0.00,,,0.04,,2013-03-17 23:22:00,
2013-03-17 17:32:00,35.0,5.0,29.57,SW,234,4.0,12.0,28,0.00,,,0.04,,2013-03-17 23:32:00,
2013-03-17 17:42:00,35.0,5.0,29.57,SW,234,4.0,12.0,28,0.00,,,0.04,,2013-03-17 23:42:00,
2013-03-17 17:52:00,35.0,6.0,29.58,West,259,8.0,13.0,29,0.00,,,0.04,,2013-03-17 23:52:00,
2013-03-17 18:02:00,34.0,6.0,29.60,WSW,238,8.0,16.0,30,0.00,,,0.04,,2013-03-18 00:02:00,
2013-03-17 18:11:00,34.0,6.0,29.60,WSW,238,8.0,16.0,30,0.00,,,0.04,,2013-03-18 00:11:00,
2013-03-17 18:22:00,33.0,6.0,29.61,South,189,2.0,12.0,32,0.00,,,0.04,,2013-03-18 00:22:00,
2013-03-17 18:32:00,32.0,7.0,29.62,SW,234,7.0,27.0,35,0.00,,,0.04,,2013-03-18 00:32:00,
2013-03-17 18:42:00,32.0,7.0,29.62,SW,234,7.0,27.0,35,0.00,,,0.04,,2013-03-18 00:42:00,
2013-03-17 18:52:00,31.0,9.0,29.63,SW,223,9.0,19.0,39,0.00,,,0.04,,2013-03-18 00:52:00,
2013-03-17 19:01:00,31.0,10.0,29.63,SSE,155,11.0,17.0,41,0.00,,,0.04,,2013-03-18 01:01:00,
2013-03-17 19:11:00,31.0,10.0,29.63,SSE,155,11.0,17.0,41,0.00,,,0.04,,2013-03-18 01:11:00,
2013-03-17 19:22:00,30.0,9.0,29.64,South,190,6.0,14.0,41,0.00,,,0.04,,2013-03-18 01:22:00,
2013-03-17 19:32:00,30.0,9.0,29.64,South,190,6.0,14.0,41,0.00,,,0.04,,2013-03-18 01:32:00,
2013-03-17 19:41:00,30.0,9.0,29.64,South,190,6.0,14.0,41,0.00,,,0.04,,2013-03-18 01:41:00,
2013-03-17 19:52:00,31.0,8.0,29.65,WSW,240,13.0,20.0,38,0.00,,,0.04,,2013-03-18 01:52:00,
2013-03-17 20:02:00,31.0,8.0,29.66,SE,128,7.0,17.0,38,0.00,,,0.04,,2013-03-18 02:02:00,
2013-03-17 20:12:00,31.0,8.0,29.66,SE,128,7.0,17.0,38,0.00,,,0.04,,2013-03-18 02:12:00,
2013-03-17 20:22:00,30.0,6.0,29.67,SW,225,8.0,12.0,36,0.00,,,0.04,,2013-03-18 02:22:00,
2013-03-17 20:32:00,31.0,5.0,29.67,WSW,254,9.0,17.0,33,0.00,,,0.04,,2013-03-18 02:32:00,
2013-03-17 20:42:00,31.0,5.0,29.67,WSW,254,9.0,17.0,33,0.00,,,0.04,,2013-03-18 02:42:00,
2013-03-17 20:52:00,31.0,7.0,29.68,NW,304,9.0,16.0,35,0.00,,,0.04,,2013-03-18 02:52:00,
2013-03-17 21:02:00,31.0,7.0,29.69,West,259,11.0,16.0,35,0.00,,,0.04,,2013-03-18 03:02:00,
2013-03-17 21:11:00,31.0,7.0,29.69,West,259,11.0,16.0,35,0.00,,,0.04,,2013-03-18 03:11:00,
2013-03-17 21:21:00,30.0,6.0,29.71,West,267,10.0,22.0,36,0.00,,,0.04,,2013-03-18 03:21:00,
2013-03-17 21:32:00,30.0,7.0,29.72,South,188,4.0,14.0,37,0.00,,,0.04,,2013-03-18 03:32:00,
2013-03-17 21:42:00,30.0,7.0,29.72,South,188,4.0,14.0,37,0.00,,,0.04,,2013-03-18 03:42:00,
2013-03-17 21:52:00,30.0,9.0,29.71,SW,231,5.0,12.0,40,0.00,,,0.04,,2013-03-18 03:52:00,
2013-03-17 22:02:00,30.0,7.0,29.73,SW,236,10.0,18.0,37,0.00,,,0.04,,2013-03-18 04:02:00,
2013-03-17 22:12:00,30.0,7.0,29.73,SW,236,10.0,18.0,37,0.00,,,0.04,,2013-03-18 04:12:00,
2013-03-17 22:22:00,30.0,9.0,29.74,West,271,9.0,15.0,40,0.00,,,0.04,,2013-03-18 04:22:00,
2013-03-17 22:33:00,30.0,10.0,29.75,SW,234,9.0,13.0,42,0.00,,,0.04,,2013-03-18 04:33:00,
2013-03-17 22:42:00,30.0,10.0,29.75,SW,234,9.0,13.0,42,0.00,,,0.04,,2013-03-18 04:42:00,
2013-03-17 22:52:00,29.0,9.0,29.75,SW,218,8.0,12.0,42,0.00,,,0.04,,2013-03-18 04:52:00,
2013-03-17 23:02:00,29.0,8.0,29.76,WNW,290,7.0,14.0,41,0.00,,,0.04,,2013-03-18 05:02:00,
2013-03-17 23:12:00,29.0,8.0,29.76,WNW,290,7.0,14.0,41,0.00,,,0.04,,2013-03-18 05:12:00,
2013-03-17 23:22:00,28.0,10.0,29.76,WSW,246,3.0,9.0,46,0.00,,,0.04,,2013-03-18 05:22:00,
2013-03-17 23:32:00,29.0,4.0,29.76,SW,232,16.0,24.0,34,0.00,,,0.04,,2013-03-18 05:32:00,
2013-03-17 23:42:00,29.0,4.0,29.76,SW,232,16.0,24.0,34,0.00,,,0.04,,2013-03-18 05:42:00,
2013-03-17 23:52:00,29.0,4.0,29.77,West,281,9.0,21.0,34,0.00,,,0.04,,2013-03-18 05:52:00,